createdAt,value
2018-11-23T07:15:28.089Z,156.00
2018-11-23T07:17:56.524Z,153.67
2018-11-23T07:20:24.993Z,163.47
2018-11-23T07:22:53.348Z,154.07
2018-11-23T07:25:21.776Z,185.87
2018-11-23T07:27:50.147Z,169.67
2018-11-23T07:30:20.217Z,174.57
2018-11-23T07:32:51.543Z,165.40
2018-11-23T07:35:19.864Z,159.10
2018-11-23T07:37:48.663Z,200.70
2018-11-23T07:40:40.142Z,193.97
2018-11-23T07:43:08.710Z,216.87
2018-11-23T07:45:48.020Z,205.87
2018-11-23T07:48:16.342Z,189.73
2018-11-23T07:50:53.810Z,189.90
2018-11-23T07:53:18.352Z,200.83
2018-11-23T07:56:29.756Z,181.73
2018-11-23T07:58:46.242Z,189.80
2018-11-23T08:01:58.186Z,158.83
2018-11-23T08:04:46.250Z,243.80
2018-11-23T08:09:58.537Z,187.10
2018-11-23T08:12:38.954Z,181.10
2018-11-23T08:15:02.990Z,191.27
2018-11-23T08:17:36.035Z,180.53
2018-11-23T08:20:16.029Z,206.50
2018-11-23T08:23:43.869Z,188.70
2018-11-23T08:25:12.439Z,186.83
2018-11-23T08:27:39.064Z,212.00
2018-11-23T08:30:25.055Z,186.57
2018-11-23T08:32:56.441Z,356.50
2018-11-23T08:35:30.902Z,265.53
2018-11-23T08:41:00.988Z,313.70
2018-11-23T08:49:39.176Z,225.50
2018-11-23T08:52:14.593Z,224.37
2018-11-23T08:57:55.214Z,272.47
2018-11-23T09:03:43.191Z,245.97
2018-11-23T09:06:20.215Z,203.10
2018-11-23T09:10:19.887Z,256.47
2018-11-23T09:12:04.861Z,267.57
2018-11-23T09:14:33.639Z,264.07
2018-11-23T09:17:02.310Z,233.93
2018-11-23T09:19:31.117Z,210.37
2018-11-23T09:21:59.534Z,193.90
2018-11-23T09:24:29.229Z,222.90
2018-11-23T09:27:00.155Z,198.57
2018-11-23T09:29:40.759Z,171.70
2018-11-23T09:32:16.496Z,193.83
2018-11-23T09:34:54.771Z,184.60
2018-11-23T09:37:22.305Z,171.70
2018-11-23T09:39:50.808Z,161.33
2018-11-23T09:42:19.318Z,213.53
2018-11-23T09:44:49.228Z,174.10
2018-11-23T09:48:15.696Z,158.67
2018-11-23T09:50:36.581Z,154.90
2018-11-23T09:59:44.881Z,178.90
2018-11-23T10:02:25.465Z,176.17
2018-11-23T10:05:05.972Z,179.47
2018-11-23T10:11:10.207Z,170.13
2018-11-23T10:14:26.713Z,173.03
2018-11-23T10:20:03.433Z,173.07
2018-11-23T10:22:34.949Z,168.53
2018-11-23T10:28:59.211Z,148.63
2018-11-23T10:31:22.973Z,169.87
2018-11-23T10:34:07.860Z,167.47
2018-11-23T10:37:07.985Z,166.73
2018-11-23T10:39:30.463Z,166.63
2018-11-23T10:42:10.500Z,157.27
2018-11-23T10:48:37.267Z,171.30
2018-11-23T10:51:49.079Z,150.07
2018-11-23T10:54:15.439Z,169.00
2018-11-23T10:57:02.294Z,161.43
2018-11-23T11:03:09.971Z,170.53
2018-11-23T11:09:20.233Z,170.23
2018-11-23T11:11:59.496Z,166.33
2018-11-23T11:18:07.612Z,162.00
2018-11-23T11:21:11.754Z,162.10
2018-11-23T11:23:38.304Z,167.53
2018-11-23T11:26:06.839Z,165.17
2018-11-23T11:28:37.333Z,172.73
2018-11-23T11:31:08.984Z,171.23
2018-11-23T11:33:59.479Z,162.67
2018-11-23T11:36:25.526Z,148.20
2018-11-23T11:38:54.508Z,221.60
2018-11-23T11:44:48.031Z,176.53
2018-11-23T11:47:16.667Z,166.50
2018-11-23T11:49:45.258Z,162.87
2018-11-23T11:52:13.780Z,156.63
2018-11-23T11:54:51.586Z,146.20
2018-11-23T11:57:20.163Z,145.80
2018-11-23T11:59:51.209Z,168.27
2018-11-23T12:07:35.044Z,145.43
2018-11-23T12:12:03.814Z,203.23
2018-11-23T12:15:25.687Z,233.47
2018-11-23T12:18:26.498Z,147.53
2018-11-23T12:21:23.403Z,190.00
2018-11-23T12:27:18.162Z,170.37
2018-11-23T12:30:13.229Z,157.67
2018-11-23T12:36:22.890Z,146.20
2018-11-23T12:39:18.098Z,193.50
2018-11-23T12:49:01.607Z,212.47
2018-11-23T12:54:42.235Z,142.27
2018-11-23T12:57:55.255Z,151.70
2018-11-23T13:04:14.351Z,191.70
2018-11-23T13:07:31.675Z,151.83
2018-11-23T13:10:19.263Z,164.00
2018-11-23T13:13:13.362Z,153.17
2018-11-23T13:16:19.524Z,153.90
2018-11-23T13:31:11.523Z,223.63
2018-11-23T13:41:12.164Z,258.60
2018-11-23T13:50:36.060Z,325.73
2018-11-23T13:53:24.500Z,180.13
2018-11-23T13:55:54.809Z,173.70
2018-11-23T14:02:10.512Z,249.33
2018-11-23T14:04:52.132Z,226.13
2018-11-23T14:07:52.465Z,429.97
2018-11-23T14:10:32.129Z,240.93
2018-11-23T14:16:36.134Z,366.43
2018-11-23T14:22:58.703Z,702.37
2018-11-23T14:29:15.611Z,627.13
2018-11-23T14:32:13.399Z,476.73
2018-11-23T14:34:56.262Z,329.07
2018-11-23T14:37:50.577Z,254.30
2018-11-23T14:41:01.035Z,237.13
2018-11-23T14:43:47.573Z,333.83
2018-11-23T14:46:40.237Z,215.27
2018-11-23T14:49:16.096Z,266.73
2018-11-23T14:52:31.796Z,282.60
2018-11-23T14:55:02.125Z,277.13
2018-11-23T14:58:03.874Z,454.50
2018-11-23T15:00:56.573Z,298.07
2018-11-23T15:03:32.932Z,302.93
2018-11-23T15:06:30.735Z,263.67
2018-11-23T15:09:30.421Z,274.13
2018-11-23T15:12:14.772Z,256.50
2018-11-23T15:15:17.571Z,264.57
2018-11-23T15:17:49.237Z,224.07
2018-11-23T15:20:43.532Z,226.80
2018-11-23T15:26:12.769Z,198.87
2018-11-23T15:28:47.416Z,220.93
2018-11-23T15:34:41.658Z,192.93
2018-11-23T15:37:53.080Z,214.30
2018-11-23T15:40:23.792Z,179.03
2018-11-23T15:43:23.130Z,160.70
2018-11-23T15:46:20.949Z,207.97
2018-11-23T15:48:57.785Z,288.63
2018-11-23T15:51:40.038Z,233.87
2018-11-23T15:54:45.571Z,221.37
2018-11-23T15:57:55.878Z,247.57
2018-11-23T16:00:32.940Z,1151.70
2018-11-23T16:03:20.676Z,709.70
2018-11-23T16:05:59.080Z,741.13
2018-11-23T16:09:10.951Z,1348.80
2018-11-23T16:11:38.563Z,1152.47
2018-11-23T16:17:21.356Z,762.07
2018-11-23T16:20:29.619Z,1144.60
2018-11-23T16:23:19.887Z,1053.23
2018-11-23T16:25:57.469Z,797.13
2018-11-23T16:28:32.318Z,567.60
2018-11-23T16:34:20.157Z,753.90
2018-11-23T16:37:03.529Z,800.97
2018-11-23T16:39:40.919Z,747.60
2018-11-23T16:42:12.208Z,766.43
2018-11-23T16:44:45.984Z,684.37
2018-11-23T16:47:14.788Z,746.87
2018-11-23T16:49:46.562Z,824.57
2018-11-23T16:52:31.241Z,643.73
2018-11-23T16:55:06.297Z,578.47
2018-11-23T16:57:32.843Z,501.73
2018-11-23T17:00:01.208Z,506.67
2018-11-23T17:02:29.761Z,544.00
2018-11-23T17:04:58.326Z,795.37
2018-11-23T17:07:29.698Z,749.67
2018-11-23T17:09:58.295Z,645.57
2018-11-23T17:12:34.011Z,630.37
2018-11-23T17:15:37.697Z,438.20
2018-11-23T17:17:58.011Z,525.53
2018-11-23T17:20:36.074Z,519.67
2018-11-23T17:23:18.211Z,456.47
2018-11-23T17:25:50.767Z,481.87
2018-11-23T17:28:34.332Z,440.00
2018-11-23T17:31:05.473Z,504.63
2018-11-23T17:33:34.393Z,422.00
2018-11-23T17:36:15.791Z,572.07
2018-11-23T17:39:07.784Z,392.60
2018-11-23T17:41:44.961Z,404.00
2018-11-23T17:44:19.419Z,299.97
2018-11-23T17:46:56.927Z,373.87
2018-11-23T17:49:33.442Z,348.00
2018-11-23T17:52:08.716Z,325.23
2018-11-23T17:54:43.987Z,367.93
2018-11-23T17:57:12.930Z,293.97
2018-11-23T17:59:51.463Z,286.23
2018-11-23T18:02:24.420Z,295.93
2018-11-23T18:04:54.377Z,293.93
2018-11-23T18:07:33.804Z,240.73
2018-11-23T18:10:11.496Z,231.10
2018-11-23T18:12:43.434Z,187.43
2018-11-23T18:15:16.997Z,245.20
2018-11-23T18:18:08.924Z,291.70
2018-11-23T18:20:37.130Z,277.23
2018-11-23T18:23:05.422Z,322.00
2018-11-23T18:25:46.091Z,305.07
2018-11-23T18:28:20.555Z,252.70
2018-11-23T18:31:03.473Z,203.93
2018-11-23T20:57:21.487Z,419.33
2018-11-23T20:59:54.729Z,254.13
2018-11-23T21:02:36.898Z,456.97
2018-11-23T21:05:08.044Z,217.47
2018-11-23T21:07:38.751Z,226.27
2018-11-23T21:12:57.458Z,296.30
2018-11-23T21:15:32.026Z,365.83
2018-11-23T21:18:02.277Z,303.83
2018-11-23T21:20:38.730Z,364.30
2018-11-23T21:23:11.034Z,414.20
